sensor_id;sensor_type;location;lat;lon;timestamp;P1;durP1;ratioP1;P2;durP2;ratioP2
6547;SDS011;3307;52.416;16.862;2022-07-01T00:01:39;23.80;;;21.70;;
6547;SDS011;3307;52.416;16.862;2022-07-01T00:04:05;23.30;;;21.40;;
6547;SDS011;3307;52.416;16.862;2022-07-01T00:06:31;23.48;;;21.48;;
6547;SDS011;3307;52.416;16.862;2022-07-01T00:08:57;24.13;;;22.13;;
6547;SDS011;3307;52.416;16.862;2022-07-01T00:11:22;24.00;;;22.00;;
6547;SDS011;3307;52.416;16.862;2022-07-01T00:13:48;23.63;;;21.63;;
6547;SDS011;3307;52.416;16.862;2022-07-01T00:16:13;23.73;;;21.70;;
6547;SDS011;3307;52.416;16.862;2022-07-01T00:18:39;23.93;;;21.83;;
6547;SDS011;3307;52.416;16.862;2022-07-01T00:21:04;25.50;;;23.30;;
6547;SDS011;3307;52.416;16.862;2022-07-01T00:23:29;23.40;;;21.40;;
6547;SDS011;3307;52.416;16.862;2022-07-01T00:25:56;25.55;;;23.45;;
6547;SDS011;3307;52.416;16.862;2022-07-01T00:28:21;25.63;;;23.33;;
6547;SDS011;3307;52.416;16.862;2022-07-01T00:30:47;25.90;;;23.80;;
6547;SDS011;3307;52.416;16.862;2022-07-01T00:33:12;25.93;;;23.73;;
6547;SDS011;3307;52.416;16.862;2022-07-01T00:35:37;25.63;;;23.43;;
6547;SDS011;3307;52.416;16.862;2022-07-01T00:38:03;25.80;;;23.70;;
6547;SDS011;3307;52.416;16.862;2022-07-01T00:40:28;26.03;;;23.77;;
6547;SDS011;3307;52.416;16.862;2022-07-01T00:42:54;25.50;;;23.40;;
6547;SDS011;3307;52.416;16.862;2022-07-01T00:45:20;26.63;;;24.23;;
6547;SDS011;3307;52.416;16.862;2022-07-01T00:47:45;26.07;;;23.87;;
6547;SDS011;3307;52.416;16.862;2022-07-01T00:50:12;25.57;;;23.47;;
6547;SDS011;3307;52.416;16.862;2022-07-01T00:52:40;27.20;;;24.90;;
6547;SDS011;3307;52.416;16.862;2022-07-01T00:55:07;26.07;;;23.87;;
6547;SDS011;3307;52.416;16.862;2022-07-01T00:57:35;25.90;;;23.70;;
6547;SDS011;3307;52.416;16.862;2022-07-01T01:00:10;25.58;;;23.17;;
6547;SDS011;3307;52.416;16.862;2022-07-01T01:02:38;25.70;;;23.50;;
6547;SDS011;3307;52.416;16.862;2022-07-01T01:05:04;25.20;;;23.00;;
6547;SDS011;3307;52.416;16.862;2022-07-01T01:07:30;26.05;;;23.85;;
6547;SDS011;3307;52.416;16.862;2022-07-01T01:09:56;26.45;;;24.17;;
6547;SDS011;3307;52.416;16.862;2022-07-01T01:12:21;26.77;;;24.47;;
6547;SDS011;3307;52.416;16.862;2022-07-01T01:14:47;26.73;;;24.43;;
6547;SDS011;3307;52.416;16.862;2022-07-01T01:17:14;26.52;;;24.33;;
6547;SDS011;3307;52.416;16.862;2022-07-01T01:19:40;27.13;;;24.83;;
6547;SDS011;3307;52.416;16.862;2022-07-01T01:22:06;26.33;;;24.13;;
6547;SDS011;3307;52.416;16.862;2022-07-01T01:24:32;27.77;;;25.48;;
6547;SDS011;3307;52.416;16.862;2022-07-01T01:26:57;30.50;;;27.70;;
6547;SDS011;3307;52.416;16.862;2022-07-01T01:29:22;32.20;;;29.20;;
6547;SDS011;3307;52.416;16.862;2022-07-01T01:31:48;30.67;;;27.98;;
6547;SDS011;3307;52.416;16.862;2022-07-01T01:34:13;31.00;;;28.40;;
6547;SDS011;3307;52.416;16.862;2022-07-01T01:36:39;30.83;;;28.30;;
6547;SDS011;3307;52.416;16.862;2022-07-01T01:39:04;31.85;;;29.05;;
6547;SDS011;3307;52.416;16.862;2022-07-01T01:41:36;33.03;;;30.02;;
6547;SDS011;3307;52.416;16.862;2022-07-01T01:44:02;33.03;;;30.03;;
6547;SDS011;3307;52.416;16.862;2022-07-01T01:46:27;34.40;;;31.40;;
6547;SDS011;3307;52.416;16.862;2022-07-01T01:48:55;33.80;;;30.98;;
6547;SDS011;3307;52.416;16.862;2022-07-01T01:51:20;34.57;;;31.67;;
6547;SDS011;3307;52.416;16.862;2022-07-01T01:53:47;35.00;;;31.80;;
6547;SDS011;3307;52.416;16.862;2022-07-01T01:56:12;35.30;;;32.20;;
6547;SDS011;3307;52.416;16.862;2022-07-01T01:58:37;35.60;;;32.40;;
6547;SDS011;3307;52.416;16.862;2022-07-01T02:01:11;35.33;;;32.13;;
6547;SDS011;3307;52.416;16.862;2022-07-01T02:03:38;34.55;;;31.45;;
6547;SDS011;3307;52.416;16.862;2022-07-01T02:06:04;33.43;;;30.47;;
6547;SDS011;3307;52.416;16.862;2022-07-01T02:08:30;34.67;;;31.58;;
6547;SDS011;3307;52.416;16.862;2022-07-01T02:10:56;34.13;;;31.33;;
6547;SDS011;3307;52.416;16.862;2022-07-01T02:13:22;34.15;;;31.25;;
6547;SDS011;3307;52.416;16.862;2022-07-01T02:15:47;34.67;;;31.27;;
6547;SDS011;3307;52.416;16.862;2022-07-01T02:18:14;33.70;;;30.65;;
6547;SDS011;3307;52.416;16.862;2022-07-01T02:20:40;34.80;;;31.67;;
6547;SDS011;3307;52.416;16.862;2022-07-01T02:23:06;32.60;;;29.80;;
6547;SDS011;3307;52.416;16.862;2022-07-01T02:25:32;34.03;;;31.02;;
6547;SDS011;3307;52.416;16.862;2022-07-01T02:27:57;33.93;;;30.87;;
6547;SDS011;3307;52.416;16.862;2022-07-01T02:30:23;33.42;;;30.52;;
6547;SDS011;3307;52.416;16.862;2022-07-01T02:32:49;34.93;;;31.97;;
6547;SDS011;3307;52.416;16.862;2022-07-01T02:35:14;33.33;;;30.33;;
6547;SDS011;3307;52.416;16.862;2022-07-01T02:37:39;34.97;;;31.80;;
6547;SDS011;3307;52.416;16.862;2022-07-01T02:40:05;34.10;;;31.00;;
6547;SDS011;3307;52.416;16.862;2022-07-01T02:42:31;34.30;;;31.10;;
6547;SDS011;3307;52.416;16.862;2022-07-01T02:45:00;35.42;;;32.13;;
6547;SDS011;3307;52.416;16.862;2022-07-01T02:47:31;34.22;;;31.20;;
6547;SDS011;3307;52.416;16.862;2022-07-01T02:49:58;35.28;;;32.08;;
6547;SDS011;3307;52.416;16.862;2022-07-01T02:52:23;34.50;;;31.50;;
6547;SDS011;3307;52.416;16.862;2022-07-01T02:54:49;33.80;;;30.75;;
6547;SDS011;3307;52.416;16.862;2022-07-01T02:57:14;33.47;;;30.67;;
6547;SDS011;3307;52.416;16.862;2022-07-01T02:59:40;34.20;;;31.00;;
6547;SDS011;3307;52.416;16.862;2022-07-01T03:02:05;36.63;;;33.23;;
6547;SDS011;3307;52.416;16.862;2022-07-01T03:04:30;36.70;;;33.60;;
6547;SDS011;3307;52.416;16.862;2022-07-01T03:06:56;38.13;;;34.83;;
6547;SDS011;3307;52.416;16.862;2022-07-01T03:09:22;36.65;;;33.45;;
6547;SDS011;3307;52.416;16.862;2022-07-01T03:11:47;37.50;;;33.90;;
6547;SDS011;3307;52.416;16.862;2022-07-01T03:14:13;37.90;;;34.60;;
6547;SDS011;3307;52.416;16.862;2022-07-01T03:16:38;37.70;;;34.50;;
6547;SDS011;3307;52.416;16.862;2022-07-01T03:19:03;36.67;;;33.47;;
6547;SDS011;3307;52.416;16.862;2022-07-01T03:21:30;37.17;;;33.78;;
6547;SDS011;3307;52.416;16.862;2022-07-01T03:23:56;37.38;;;33.97;;
6547;SDS011;3307;52.416;16.862;2022-07-01T03:26:21;37.50;;;34.20;;
6547;SDS011;3307;52.416;16.862;2022-07-01T03:28:47;37.47;;;34.07;;
6547;SDS011;3307;52.416;16.862;2022-07-01T03:31:12;37.10;;;33.80;;
6547;SDS011;3307;52.416;16.862;2022-07-01T03:33:38;38.50;;;35.00;;
6547;SDS011;3307;52.416;16.862;2022-07-01T03:36:03;38.23;;;34.73;;
6547;SDS011;3307;52.416;16.862;2022-07-01T03:38:28;36.67;;;33.57;;
6547;SDS011;3307;52.416;16.862;2022-07-01T03:40:54;38.15;;;34.85;;
6547;SDS011;3307;52.416;16.862;2022-07-01T03:43:19;38.70;;;35.20;;
6547;SDS011;3307;52.416;16.862;2022-07-01T03:45:44;37.30;;;34.10;;
6547;SDS011;3307;52.416;16.862;2022-07-01T03:48:10;36.83;;;33.60;;
6547;SDS011;3307;52.416;16.862;2022-07-01T03:50:36;36.30;;;33.00;;
6547;SDS011;3307;52.416;16.862;2022-07-01T03:53:01;35.87;;;32.77;;
6547;SDS011;3307;52.416;16.862;2022-07-01T03:55:45;36.67;;;33.38;;
6547;SDS011;3307;52.416;16.862;2022-07-01T03:58:10;35.13;;;31.93;;
6547;SDS011;3307;52.416;16.862;2022-07-01T04:00:36;33.75;;;30.83;;
6547;SDS011;3307;52.416;16.862;2022-07-01T04:03:03;35.37;;;32.07;;
6547;SDS011;3307;52.416;16.862;2022-07-01T04:05:29;34.30;;;31.30;;
6547;SDS011;3307;52.416;16.862;2022-07-01T04:07:58;33.53;;;30.52;;
6547;SDS011;3307;52.416;16.862;2022-07-01T04:10:23;34.90;;;31.40;;
6547;SDS011;3307;52.416;16.862;2022-07-01T04:12:49;34.17;;;31.07;;
6547;SDS011;3307;52.416;16.862;2022-07-01T04:15:14;35.70;;;32.50;;
6547;SDS011;3307;52.416;16.862;2022-07-01T04:17:40;33.10;;;30.20;;
6547;SDS011;3307;52.416;16.862;2022-07-01T04:20:06;32.17;;;29.27;;
6547;SDS011;3307;52.416;16.862;2022-07-01T04:22:32;33.10;;;30.20;;
6547;SDS011;3307;52.416;16.862;2022-07-01T04:24:58;32.63;;;29.83;;
6547;SDS011;3307;52.416;16.862;2022-07-01T04:27:28;31.13;;;28.52;;
6547;SDS011;3307;52.416;16.862;2022-07-01T04:29:54;33.00;;;30.20;;
6547;SDS011;3307;52.416;16.862;2022-07-01T04:32:19;31.67;;;28.87;;
6547;SDS011;3307;52.416;16.862;2022-07-01T04:34:44;32.38;;;29.38;;
6547;SDS011;3307;52.416;16.862;2022-07-01T04:37:10;31.37;;;28.57;;
6547;SDS011;3307;52.416;16.862;2022-07-01T04:39:35;30.00;;;27.30;;
6547;SDS011;3307;52.416;16.862;2022-07-01T04:42:00;30.75;;;28.05;;
6547;SDS011;3307;52.416;16.862;2022-07-01T04:44:30;29.77;;;26.97;;
6547;SDS011;3307;52.416;16.862;2022-07-01T04:46:57;29.23;;;26.67;;
6547;SDS011;3307;52.416;16.862;2022-07-01T04:49:22;29.27;;;26.67;;
6547;SDS011;3307;52.416;16.862;2022-07-01T04:51:48;30.80;;;27.98;;
6547;SDS011;3307;52.416;16.862;2022-07-01T04:54:13;29.03;;;26.53;;
6547;SDS011;3307;52.416;16.862;2022-07-01T04:56:39;29.63;;;26.63;;
6547;SDS011;3307;52.416;16.862;2022-07-01T04:59:04;31.00;;;28.00;;
6547;SDS011;3307;52.416;16.862;2022-07-01T05:01:30;28.65;;;26.05;;
6547;SDS011;3307;52.416;16.862;2022-07-01T05:03:56;28.65;;;26.05;;
6547;SDS011;3307;52.416;16.862;2022-07-01T05:06:22;27.75;;;25.35;;
6547;SDS011;3307;52.416;16.862;2022-07-01T05:08:47;28.23;;;25.73;;
6547;SDS011;3307;52.416;16.862;2022-07-01T05:11:13;28.80;;;26.00;;
6547;SDS011;3307;52.416;16.862;2022-07-01T05:13:38;27.33;;;24.83;;
6547;SDS011;3307;52.416;16.862;2022-07-01T05:16:04;27.80;;;25.30;;
6547;SDS011;3307;52.416;16.862;2022-07-01T05:18:30;27.03;;;24.50;;
6547;SDS011;3307;52.416;16.862;2022-07-01T05:21:14;26.15;;;23.65;;
6547;SDS011;3307;52.416;16.862;2022-07-01T05:23:59;27.05;;;24.60;;
6547;SDS011;3307;52.416;16.862;2022-07-01T05:26:24;26.85;;;24.55;;
6547;SDS011;3307;52.416;16.862;2022-07-01T05:28:51;26.30;;;23.90;;
6547;SDS011;3307;52.416;16.862;2022-07-01T05:31:20;24.92;;;22.58;;
6547;SDS011;3307;52.416;16.862;2022-07-01T05:33:46;24.20;;;21.90;;
6547;SDS011;3307;52.416;16.862;2022-07-01T05:36:12;24.45;;;22.15;;
6547;SDS011;3307;52.416;16.862;2022-07-01T05:38:37;24.42;;;22.02;;
6547;SDS011;3307;52.416;16.862;2022-07-01T05:41:03;25.15;;;22.10;;
6547;SDS011;3307;52.416;16.862;2022-07-01T05:43:28;24.37;;;22.10;;
6547;SDS011;3307;52.416;16.862;2022-07-01T05:45:54;25.53;;;23.00;;
6547;SDS011;3307;52.416;16.862;2022-07-01T05:48:19;24.60;;;22.00;;
6547;SDS011;3307;52.416;16.862;2022-07-01T05:50:45;24.52;;;22.02;;
6547;SDS011;3307;52.416;16.862;2022-07-01T05:53:10;23.63;;;21.43;;
6547;SDS011;3307;52.416;16.862;2022-07-01T05:55:36;23.93;;;21.73;;
6547;SDS011;3307;52.416;16.862;2022-07-01T05:58:01;23.80;;;21.30;;
6547;SDS011;3307;52.416;16.862;2022-07-01T06:00:27;25.00;;;22.00;;
6547;SDS011;3307;52.416;16.862;2022-07-01T06:02:53;20.13;;;18.33;;
6547;SDS011;3307;52.416;16.862;2022-07-01T06:05:18;19.50;;;17.70;;
6547;SDS011;3307;52.416;16.862;2022-07-01T06:07:44;18.80;;;17.20;;
6547;SDS011;3307;52.416;16.862;2022-07-01T06:10:09;18.37;;;16.77;;
6547;SDS011;3307;52.416;16.862;2022-07-01T06:12:35;19.50;;;17.70;;
6547;SDS011;3307;52.416;16.862;2022-07-01T06:15:02;18.03;;;16.23;;
6547;SDS011;3307;52.416;16.862;2022-07-01T06:17:28;18.17;;;16.48;;
6547;SDS011;3307;52.416;16.862;2022-07-01T06:19:54;16.80;;;15.30;;
6547;SDS011;3307;52.416;16.862;2022-07-01T06:22:19;15.93;;;14.53;;
6547;SDS011;3307;52.416;16.862;2022-07-01T06:24:46;14.50;;;13.20;;
6547;SDS011;3307;52.416;16.862;2022-07-01T06:27:11;13.80;;;12.40;;
6547;SDS011;3307;52.416;16.862;2022-07-01T06:29:37;13.87;;;12.57;;
6547;SDS011;3307;52.416;16.862;2022-07-01T06:32:03;14.80;;;13.33;;
6547;SDS011;3307;52.416;16.862;2022-07-01T06:34:30;14.48;;;12.85;;
6547;SDS011;3307;52.416;16.862;2022-07-01T06:36:55;14.30;;;12.90;;
6547;SDS011;3307;52.416;16.862;2022-07-01T06:39:21;14.60;;;13.10;;
6547;SDS011;3307;52.416;16.862;2022-07-01T06:41:46;14.57;;;13.27;;
6547;SDS011;3307;52.416;16.862;2022-07-01T06:44:11;14.07;;;12.87;;
6547;SDS011;3307;52.416;16.862;2022-07-01T06:46:37;16.03;;;14.53;;
6547;SDS011;3307;52.416;16.862;2022-07-01T06:49:03;14.80;;;13.50;;
6547;SDS011;3307;52.416;16.862;2022-07-01T06:51:29;14.35;;;12.85;;
6547;SDS011;3307;52.416;16.862;2022-07-01T06:53:54;13.80;;;12.50;;
6547;SDS011;3307;52.416;16.862;2022-07-01T06:56:19;14.10;;;12.70;;
6547;SDS011;3307;52.416;16.862;2022-07-01T06:58:45;14.40;;;13.00;;
6547;SDS011;3307;52.416;16.862;2022-07-01T07:01:10;14.60;;;13.20;;
6547;SDS011;3307;52.416;16.862;2022-07-01T07:03:36;14.60;;;13.20;;
6547;SDS011;3307;52.416;16.862;2022-07-01T07:06:02;15.00;;;13.48;;
6547;SDS011;3307;52.416;16.862;2022-07-01T07:08:31;14.88;;;13.48;;
6547;SDS011;3307;52.416;16.862;2022-07-01T07:10:57;15.25;;;13.63;;
6547;SDS011;3307;52.416;16.862;2022-07-01T07:13:23;15.27;;;13.88;;
6547;SDS011;3307;52.416;16.862;2022-07-01T07:15:48;14.80;;;13.40;;
6547;SDS011;3307;52.416;16.862;2022-07-01T07:18:14;15.60;;;14.20;;
6547;SDS011;3307;52.416;16.862;2022-07-01T07:20:39;14.65;;;13.35;;
6547;SDS011;3307;52.416;16.862;2022-07-01T07:23:05;15.13;;;13.53;;
6547;SDS011;3307;52.416;16.862;2022-07-01T07:25:30;16.33;;;14.73;;
6547;SDS011;3307;52.416;16.862;2022-07-01T07:27:56;15.52;;;14.07;;
6547;SDS011;3307;52.416;16.862;2022-07-01T07:30:21;15.57;;;14.07;;
6547;SDS011;3307;52.416;16.862;2022-07-01T07:32:47;15.50;;;14.00;;
6547;SDS011;3307;52.416;16.862;2022-07-01T07:35:12;15.70;;;14.20;;
6547;SDS011;3307;52.416;16.862;2022-07-01T07:37:38;15.80;;;14.30;;
6547;SDS011;3307;52.416;16.862;2022-07-01T07:40:04;15.27;;;13.87;;
6547;SDS011;3307;52.416;16.862;2022-07-01T07:42:31;16.25;;;14.65;;
6547;SDS011;3307;52.416;16.862;2022-07-01T07:44:57;15.70;;;14.30;;
6547;SDS011;3307;52.416;16.862;2022-07-01T07:47:22;15.67;;;14.27;;
6547;SDS011;3307;52.416;16.862;2022-07-01T07:49:48;16.10;;;14.70;;
6547;SDS011;3307;52.416;16.862;2022-07-01T07:52:13;16.20;;;14.70;;
6547;SDS011;3307;52.416;16.862;2022-07-01T07:54:38;17.83;;;15.00;;
6547;SDS011;3307;52.416;16.862;2022-07-01T07:57:04;16.95;;;15.55;;
6547;SDS011;3307;52.416;16.862;2022-07-01T07:59:30;16.60;;;15.20;;
6547;SDS011;3307;52.416;16.862;2022-07-01T08:01:55;15.87;;;14.37;;
6547;SDS011;3307;52.416;16.862;2022-07-01T08:04:21;15.83;;;14.50;;
6547;SDS011;3307;52.416;16.862;2022-07-01T08:06:46;16.30;;;14.90;;
6547;SDS011;3307;52.416;16.862;2022-07-01T08:09:12;16.43;;;14.93;;
6547;SDS011;3307;52.416;16.862;2022-07-01T08:11:37;18.10;;;16.50;;
6547;SDS011;3307;52.416;16.862;2022-07-01T08:14:03;17.07;;;15.67;;
6547;SDS011;3307;52.416;16.862;2022-07-01T08:16:28;16.97;;;15.20;;
6547;SDS011;3307;52.416;16.862;2022-07-01T08:18:54;16.55;;;15.07;;
6547;SDS011;3307;52.416;16.862;2022-07-01T08:21:19;17.17;;;15.47;;
6547;SDS011;3307;52.416;16.862;2022-07-01T08:23:45;17.63;;;16.08;;
6547;SDS011;3307;52.416;16.862;2022-07-01T08:26:10;17.80;;;16.00;;
6547;SDS011;3307;52.416;16.862;2022-07-01T08:28:38;18.02;;;16.52;;
6547;SDS011;3307;52.416;16.862;2022-07-01T08:31:04;17.03;;;15.53;;
6547;SDS011;3307;52.416;16.862;2022-07-01T08:33:29;17.40;;;15.70;;
6547;SDS011;3307;52.416;16.862;2022-07-01T08:35:54;17.00;;;15.50;;
6547;SDS011;3307;52.416;16.862;2022-07-01T08:38:20;16.43;;;15.07;;
6547;SDS011;3307;52.416;16.862;2022-07-01T08:40:45;17.10;;;15.40;;
6547;SDS011;3307;52.416;16.862;2022-07-01T08:43:10;17.27;;;15.70;;
6547;SDS011;3307;52.416;16.862;2022-07-01T08:45:36;17.67;;;16.07;;
6547;SDS011;3307;52.416;16.862;2022-07-01T08:48:02;17.70;;;16.10;;
6547;SDS011;3307;52.416;16.862;2022-07-01T08:50:34;16.90;;;15.40;;
6547;SDS011;3307;52.416;16.862;2022-07-01T08:53:04;17.40;;;15.93;;
6547;SDS011;3307;52.416;16.862;2022-07-01T08:55:31;17.37;;;15.97;;
6547;SDS011;3307;52.416;16.862;2022-07-01T08:57:57;18.10;;;16.60;;
6547;SDS011;3307;52.416;16.862;2022-07-01T09:00:28;16.93;;;15.63;;
6547;SDS011;3307;52.416;16.862;2022-07-01T09:02:56;17.77;;;16.10;;
6547;SDS011;3307;52.416;16.862;2022-07-01T09:05:24;17.45;;;15.88;;
6547;SDS011;3307;52.416;16.862;2022-07-01T09:08:06;17.88;;;16.08;;
6547;SDS011;3307;52.416;16.862;2022-07-01T09:10:31;18.60;;;16.98;;
6547;SDS011;3307;52.416;16.862;2022-07-01T09:13:06;17.80;;;16.27;;
6547;SDS011;3307;52.416;16.862;2022-07-01T09:15:33;17.88;;;16.38;;
6547;SDS011;3307;52.416;16.862;2022-07-01T09:18:17;17.27;;;15.73;;
6547;SDS011;3307;52.416;16.862;2022-07-01T09:20:46;17.85;;;16.35;;
6547;SDS011;3307;52.416;16.862;2022-07-01T09:23:19;19.30;;;17.50;;
6547;SDS011;3307;52.416;16.862;2022-07-01T09:25:49;18.52;;;17.02;;
6547;SDS011;3307;52.416;16.862;2022-07-01T09:28:26;95.70;;;28.63;;
6547;SDS011;3307;52.416;16.862;2022-07-01T09:30:52;17.60;;;16.00;;
6547;SDS011;3307;52.416;16.862;2022-07-01T09:33:20;18.40;;;16.70;;
6547;SDS011;3307;52.416;16.862;2022-07-01T09:35:47;17.75;;;16.25;;
6547;SDS011;3307;52.416;16.862;2022-07-01T09:38:15;18.20;;;16.60;;
6547;SDS011;3307;52.416;16.862;2022-07-01T09:40:55;17.48;;;16.10;;
6547;SDS011;3307;52.416;16.862;2022-07-01T09:43:32;18.13;;;16.50;;
6547;SDS011;3307;52.416;16.862;2022-07-01T09:48:26;17.70;;;16.20;;
6547;SDS011;3307;52.416;16.862;2022-07-01T09:51:07;18.92;;;17.30;;
6547;SDS011;3307;52.416;16.862;2022-07-01T09:53:33;18.00;;;16.50;;
6547;SDS011;3307;52.416;16.862;2022-07-01T09:55:59;17.10;;;15.70;;
6547;SDS011;3307;52.416;16.862;2022-07-01T09:58:25;18.93;;;17.37;;
6547;SDS011;3307;52.416;16.862;2022-07-01T10:00:54;18.23;;;16.60;;
6547;SDS011;3307;52.416;16.862;2022-07-01T10:03:20;18.90;;;17.30;;
6547;SDS011;3307;52.416;16.862;2022-07-01T10:08:49;18.20;;;16.70;;
6547;SDS011;3307;52.416;16.862;2022-07-01T10:14:15;18.48;;;16.88;;
6547;SDS011;3307;52.416;16.862;2022-07-01T10:16:41;18.52;;;16.95;;
6547;SDS011;3307;52.416;16.862;2022-07-01T10:21:45;18.42;;;16.73;;
6547;SDS011;3307;52.416;16.862;2022-07-01T10:24:14;18.13;;;16.63;;
6547;SDS011;3307;52.416;16.862;2022-07-01T10:26:41;18.73;;;17.23;;
6547;SDS011;3307;52.416;16.862;2022-07-01T10:32:01;17.95;;;16.55;;
6547;SDS011;3307;52.416;16.862;2022-07-01T10:34:34;18.90;;;17.30;;
6547;SDS011;3307;52.416;16.862;2022-07-01T10:37:04;20.02;;;18.42;;
6547;SDS011;3307;52.416;16.862;2022-07-01T10:42:29;19.33;;;17.75;;
6547;SDS011;3307;52.416;16.862;2022-07-01T10:45:17;19.67;;;18.17;;
6547;SDS011;3307;52.416;16.862;2022-07-01T10:47:42;19.90;;;18.13;;
6547;SDS011;3307;52.416;16.862;2022-07-01T10:50:09;19.60;;;17.88;;
6547;SDS011;3307;52.416;16.862;2022-07-01T10:52:34;19.27;;;17.57;;
6547;SDS011;3307;52.416;16.862;2022-07-01T10:55:01;19.43;;;17.73;;
6547;SDS011;3307;52.416;16.862;2022-07-01T10:57:29;19.40;;;17.60;;
6547;SDS011;3307;52.416;16.862;2022-07-01T11:02:31;20.57;;;18.70;;
6547;SDS011;3307;52.416;16.862;2022-07-01T11:05:02;21.35;;;19.02;;
6547;SDS011;3307;52.416;16.862;2022-07-01T11:07:28;18.70;;;17.20;;
6547;SDS011;3307;52.416;16.862;2022-07-01T11:09:55;45.20;;;23.55;;
6547;SDS011;3307;52.416;16.862;2022-07-01T11:12:22;28.57;;;21.70;;
6547;SDS011;3307;52.416;16.862;2022-07-01T11:14:51;19.00;;;17.10;;
6547;SDS011;3307;52.416;16.862;2022-07-01T11:17:17;20.33;;;18.63;;
6547;SDS011;3307;52.416;16.862;2022-07-01T11:19:50;20.77;;;18.88;;
6547;SDS011;3307;52.416;16.862;2022-07-01T11:22:22;20.10;;;18.30;;
6547;SDS011;3307;52.416;16.862;2022-07-01T11:24:52;19.50;;;17.60;;
6547;SDS011;3307;52.416;16.862;2022-07-01T11:27:28;21.85;;;19.85;;
6547;SDS011;3307;52.416;16.862;2022-07-01T11:29:54;20.52;;;18.70;;
6547;SDS011;3307;52.416;16.862;2022-07-01T11:32:31;20.35;;;18.45;;
6547;SDS011;3307;52.416;16.862;2022-07-01T11:34:58;20.35;;;18.50;;
6547;SDS011;3307;52.416;16.862;2022-07-01T11:37:26;20.50;;;18.90;;
6547;SDS011;3307;52.416;16.862;2022-07-01T11:40:13;20.00;;;18.30;;
6547;SDS011;3307;52.416;16.862;2022-07-01T11:42:39;20.55;;;18.88;;
6547;SDS011;3307;52.416;16.862;2022-07-01T11:45:05;20.57;;;18.87;;
6547;SDS011;3307;52.416;16.862;2022-07-01T11:47:31;21.50;;;19.70;;
6547;SDS011;3307;52.416;16.862;2022-07-01T11:49:57;21.07;;;19.37;;
6547;SDS011;3307;52.416;16.862;2022-07-01T11:52:23;20.63;;;19.02;;
6547;SDS011;3307;52.416;16.862;2022-07-01T11:54:50;20.47;;;18.83;;
6547;SDS011;3307;52.416;16.862;2022-07-01T11:59:43;20.88;;;19.20;;
6547;SDS011;3307;52.416;16.862;2022-07-01T12:02:09;20.50;;;18.70;;
6547;SDS011;3307;52.416;16.862;2022-07-01T12:04:37;19.77;;;18.17;;
6547;SDS011;3307;52.416;16.862;2022-07-01T12:07:03;19.98;;;18.48;;
6547;SDS011;3307;52.416;16.862;2022-07-01T12:09:29;20.05;;;18.45;;
6547;SDS011;3307;52.416;16.862;2022-07-01T12:11:54;23.80;;;22.10;;
6547;SDS011;3307;52.416;16.862;2022-07-01T12:16:46;21.10;;;19.35;;
6547;SDS011;3307;52.416;16.862;2022-07-01T12:19:12;20.27;;;18.75;;
6547;SDS011;3307;52.416;16.862;2022-07-01T12:21:53;20.80;;;19.20;;
6547;SDS011;3307;52.416;16.862;2022-07-01T12:24:21;20.90;;;19.20;;
6547;SDS011;3307;52.416;16.862;2022-07-01T12:26:58;20.67;;;18.97;;
6547;SDS011;3307;52.416;16.862;2022-07-01T12:30:10;22.10;;;20.33;;
6547;SDS011;3307;52.416;16.862;2022-07-01T12:32:21;21.45;;;19.92;;
6547;SDS011;3307;52.416;16.862;2022-07-01T12:34:53;20.75;;;18.90;;
6547;SDS011;3307;52.416;16.862;2022-07-01T12:37:32;21.73;;;19.83;;
6547;SDS011;3307;52.416;16.862;2022-07-01T12:42:33;21.95;;;19.85;;
6547;SDS011;3307;52.416;16.862;2022-07-01T12:45:17;20.73;;;19.00;;
6547;SDS011;3307;52.416;16.862;2022-07-01T12:47:49;20.77;;;18.83;;
6547;SDS011;3307;52.416;16.862;2022-07-01T12:50:22;19.63;;;18.13;;
6547;SDS011;3307;52.416;16.862;2022-07-01T12:55:32;20.50;;;19.00;;
6547;SDS011;3307;52.416;16.862;2022-07-01T12:58:00;20.20;;;18.50;;
6547;SDS011;3307;52.416;16.862;2022-07-01T13:00:26;22.20;;;20.20;;
6547;SDS011;3307;52.416;16.862;2022-07-01T13:02:53;20.55;;;18.85;;
6547;SDS011;3307;52.416;16.862;2022-07-01T13:05:20;22.75;;;20.75;;
6547;SDS011;3307;52.416;16.862;2022-07-01T13:07:45;21.80;;;20.00;;
6547;SDS011;3307;52.416;16.862;2022-07-01T13:10:11;24.27;;;19.83;;
6547;SDS011;3307;52.416;16.862;2022-07-01T13:12:37;198.55;;;34.30;;
6547;SDS011;3307;52.416;16.862;2022-07-01T13:15:02;20.45;;;18.75;;
6547;SDS011;3307;52.416;16.862;2022-07-01T13:17:28;21.70;;;20.00;;
6547;SDS011;3307;52.416;16.862;2022-07-01T13:19:54;20.77;;;19.17;;
6547;SDS011;3307;52.416;16.862;2022-07-01T13:22:20;21.97;;;20.10;;
6547;SDS011;3307;52.416;16.862;2022-07-01T13:24:45;21.50;;;19.92;;
6547;SDS011;3307;52.416;16.862;2022-07-01T13:27:11;21.70;;;20.00;;
6547;SDS011;3307;52.416;16.862;2022-07-01T13:29:36;22.92;;;21.23;;
6547;SDS011;3307;52.416;16.862;2022-07-01T13:32:02;23.07;;;21.07;;
6547;SDS011;3307;52.416;16.862;2022-07-01T13:34:28;23.10;;;21.30;;
6547;SDS011;3307;52.416;16.862;2022-07-01T13:36:53;22.20;;;20.60;;
6547;SDS011;3307;52.416;16.862;2022-07-01T13:39:19;23.87;;;21.97;;
6547;SDS011;3307;52.416;16.862;2022-07-01T13:41:44;24.00;;;22.17;;
6547;SDS011;3307;52.416;16.862;2022-07-01T13:44:10;23.10;;;21.30;;
6547;SDS011;3307;52.416;16.862;2022-07-01T13:46:35;24.97;;;22.97;;
6547;SDS011;3307;52.416;16.862;2022-07-01T13:49:01;24.20;;;22.45;;
6547;SDS011;3307;52.416;16.862;2022-07-01T13:51:27;24.73;;;22.92;;
6547;SDS011;3307;52.416;16.862;2022-07-01T13:53:52;23.93;;;22.13;;
6547;SDS011;3307;52.416;16.862;2022-07-01T13:56:18;24.20;;;22.40;;
6547;SDS011;3307;52.416;16.862;2022-07-01T13:58:43;25.07;;;23.17;;
6547;SDS011;3307;52.416;16.862;2022-07-01T14:01:08;24.70;;;22.80;;
6547;SDS011;3307;52.416;16.862;2022-07-01T14:03:34;24.05;;;22.08;;
6547;SDS011;3307;52.416;16.862;2022-07-01T14:05:59;25.60;;;23.70;;
6547;SDS011;3307;52.416;16.862;2022-07-01T14:08:25;25.67;;;23.67;;
6547;SDS011;3307;52.416;16.862;2022-07-01T14:10:51;25.83;;;23.73;;
6547;SDS011;3307;52.416;16.862;2022-07-01T14:13:18;24.67;;;22.77;;
6547;SDS011;3307;52.416;16.862;2022-07-01T14:15:46;24.10;;;22.20;;
6547;SDS011;3307;52.416;16.862;2022-07-01T14:18:11;19.25;;;16.13;;
6547;SDS011;3307;52.416;16.862;2022-07-01T14:20:37;14.55;;;11.10;;
6547;SDS011;3307;52.416;16.862;2022-07-01T14:23:02;17.50;;;11.30;;
6547;SDS011;3307;52.416;16.862;2022-07-01T14:25:28;12.82;;;9.82;;
6547;SDS011;3307;52.416;16.862;2022-07-01T14:27:53;15.57;;;10.10;;
6547;SDS011;3307;52.416;16.862;2022-07-01T14:30:18;11.60;;;7.85;;
6547;SDS011;3307;52.416;16.862;2022-07-01T14:32:44;10.57;;;7.47;;
6547;SDS011;3307;52.416;16.862;2022-07-01T14:35:09;8.63;;;7.73;;
6547;SDS011;3307;52.416;16.862;2022-07-01T14:37:35;8.60;;;7.70;;
6547;SDS011;3307;52.416;16.862;2022-07-01T14:40:02;8.75;;;8.05;;
6547;SDS011;3307;52.416;16.862;2022-07-01T14:42:28;9.07;;;8.18;;
6547;SDS011;3307;52.416;16.862;2022-07-01T14:44:54;10.23;;;8.40;;
6547;SDS011;3307;52.416;16.862;2022-07-01T14:47:20;9.48;;;8.32;;
6547;SDS011;3307;52.416;16.862;2022-07-01T14:49:46;10.27;;;9.27;;
6547;SDS011;3307;52.416;16.862;2022-07-01T14:52:11;9.48;;;8.68;;
6547;SDS011;3307;52.416;16.862;2022-07-01T14:54:37;8.50;;;7.70;;
6547;SDS011;3307;52.416;16.862;2022-07-01T14:57:03;9.18;;;8.27;;
6547;SDS011;3307;52.416;16.862;2022-07-01T14:59:29;10.55;;;8.07;;
6547;SDS011;3307;52.416;16.862;2022-07-01T15:01:55;8.90;;;8.05;;
6547;SDS011;3307;52.416;16.862;2022-07-01T15:04:23;7.63;;;6.82;;